createdAt,value
2018-05-13T00:01:34.908Z,60.89
2018-05-13T00:04:02.185Z,60.98
2018-05-13T00:06:29.153Z,61.13
2018-05-13T00:08:56.191Z,61.32
2018-05-13T00:11:24.106Z,61.17
2018-05-13T00:13:51.182Z,63.14
2018-05-13T00:16:18.211Z,65.49
2018-05-13T00:18:45.527Z,66.70
2018-05-13T00:21:12.610Z,65.81
2018-05-13T00:23:39.682Z,66.71
2018-05-13T00:26:06.706Z,67.90
2018-05-13T00:28:33.702Z,67.47
2018-05-13T00:31:00.780Z,65.95
2018-05-13T00:33:27.835Z,65.92
2018-05-13T00:35:54.814Z,64.97
2018-05-13T00:38:21.822Z,65.34
2018-05-13T00:40:48.767Z,64.58
2018-05-13T00:43:15.730Z,64.07
2018-05-13T00:48:23.338Z,63.93
2018-05-13T00:50:50.305Z,63.70
2018-05-13T00:53:17.308Z,63.68
2018-05-13T00:55:44.588Z,63.21
2018-05-13T00:58:11.581Z,62.86
2018-05-13T01:00:38.635Z,62.70
2018-05-13T01:03:05.878Z,62.52
2018-05-13T01:05:32.960Z,62.09
2018-05-13T01:08:07.459Z,62.49
2018-05-13T01:10:34.680Z,62.86
2018-05-13T01:13:01.599Z,63.12
2018-05-13T01:15:28.551Z,65.42
2018-05-13T01:17:55.484Z,64.31
2018-05-13T01:20:22.468Z,62.78
2018-05-13T01:22:49.424Z,65.62
2018-05-13T01:25:16.372Z,66.38
2018-05-13T01:27:43.320Z,66.72
2018-05-13T01:30:10.278Z,67.59
2018-05-13T01:32:37.239Z,67.85
2018-05-13T01:35:04.189Z,68.02
2018-05-13T01:37:31.140Z,69.32
2018-05-13T01:39:58.081Z,68.32
2018-05-13T01:42:25.027Z,68.61
2018-05-13T01:44:51.971Z,68.19
2018-05-13T01:47:18.921Z,70.67
2018-05-13T01:49:45.860Z,71.11
2018-05-13T01:52:12.800Z,70.63
2018-05-13T01:54:39.746Z,70.74
2018-05-13T01:57:06.746Z,72.27
2018-05-13T01:59:33.629Z,71.72
2018-05-13T02:02:00.575Z,72.17
2018-05-13T02:04:27.535Z,72.56
2018-05-13T02:06:55.356Z,72.65
2018-05-13T02:09:22.299Z,72.18
2018-05-13T02:11:49.239Z,73.04
2018-05-13T02:14:16.183Z,72.64
2018-05-13T02:16:43.122Z,73.49
2018-05-13T02:19:10.070Z,73.85
2018-05-13T02:21:37.011Z,74.50
2018-05-13T02:24:03.959Z,74.88
2018-05-13T02:26:30.900Z,74.33
2018-05-13T02:28:57.831Z,74.86
2018-05-13T02:31:24.779Z,74.43
2018-05-13T02:33:51.721Z,73.74
2018-05-13T02:36:18.668Z,74.64
2018-05-13T02:38:45.607Z,74.95
2018-05-13T02:41:12.543Z,75.75
2018-05-13T02:43:39.494Z,76.53
2018-05-13T02:46:06.435Z,76.96
2018-05-13T02:48:33.375Z,77.75
2018-05-13T02:51:00.337Z,78.06
2018-05-13T02:53:27.297Z,78.17
2018-05-13T02:55:54.272Z,77.66
2018-05-13T02:58:21.248Z,77.29
2018-05-13T03:00:48.196Z,77.69
2018-05-13T03:03:15.136Z,78.22
2018-05-13T03:05:42.075Z,78.47
2018-05-13T03:08:09.008Z,77.94
2018-05-13T03:10:35.955Z,78.24
2018-05-13T03:13:02.893Z,77.52
2018-05-13T03:15:29.849Z,78.30
2018-05-13T03:17:56.778Z,78.89
2018-05-13T03:20:23.731Z,78.62
2018-05-13T03:22:50.673Z,77.25
2018-05-13T03:25:17.627Z,76.70
2018-05-13T03:30:48.465Z,78.04
2018-05-13T03:33:15.419Z,78.37
2018-05-13T03:35:42.376Z,78.61
2018-05-13T03:38:09.321Z,77.79
2018-05-13T03:40:36.271Z,78.01
2018-05-13T03:43:03.212Z,77.40
2018-05-13T03:45:30.162Z,75.88
2018-05-13T03:47:57.107Z,76.48
2018-05-13T03:50:24.055Z,78.51
2018-05-13T03:52:50.995Z,77.17
2018-05-13T03:55:17.951Z,77.67
2018-05-13T03:57:44.892Z,76.88
2018-05-13T04:00:11.834Z,75.59
2018-05-13T04:02:38.774Z,76.30
2018-05-13T04:05:05.732Z,75.37
2018-05-13T04:07:32.670Z,74.70
2018-05-13T04:10:05.383Z,74.74
2018-05-13T04:12:38.211Z,75.89
2018-05-13T04:15:10.984Z,75.70
2018-05-13T04:17:38.459Z,75.62
2018-05-13T04:20:05.409Z,74.86
2018-05-13T04:22:32.340Z,76.79
2018-05-13T04:24:59.352Z,78.63
2018-05-13T04:27:26.273Z,78.55
2018-05-13T04:29:53.219Z,77.48
2018-05-13T04:32:20.158Z,78.11
2018-05-13T04:34:47.090Z,79.09
2018-05-13T04:37:14.043Z,77.93
2018-05-13T04:39:40.989Z,77.94
2018-05-13T04:42:07.929Z,78.42
2018-05-13T04:44:34.958Z,79.72
2018-05-13T04:47:01.828Z,79.36
2018-05-13T04:49:28.769Z,78.90
2018-05-13T04:51:55.724Z,78.42
2018-05-13T04:54:22.655Z,77.73
2018-05-13T04:56:49.653Z,78.91
2018-05-13T04:59:16.571Z,78.23
2018-05-13T05:01:43.518Z,77.23
2018-05-13T05:04:10.461Z,76.90
2018-05-13T05:06:37.403Z,76.42
2018-05-13T05:09:04.347Z,75.21
2018-05-13T05:11:31.305Z,75.80
2018-05-13T05:13:58.256Z,77.13
2018-05-13T05:16:25.199Z,76.73
2018-05-13T05:18:52.143Z,74.96
2018-05-13T05:21:19.092Z,73.27
2018-05-13T05:23:46.036Z,72.97
2018-05-13T05:26:12.983Z,75.26
2018-05-13T05:28:39.920Z,74.81
2018-05-13T05:31:06.867Z,73.87
2018-05-13T05:33:33.803Z,73.10
2018-05-13T05:36:00.748Z,73.11
2018-05-13T05:38:27.689Z,72.74
2018-05-13T05:40:54.633Z,72.84
2018-05-13T05:43:21.571Z,73.13
2018-05-13T05:45:48.532Z,73.16
2018-05-13T05:48:15.478Z,72.64
2018-05-13T05:50:42.423Z,72.97
2018-05-13T05:53:09.367Z,72.12
2018-05-13T05:55:36.315Z,71.82
2018-05-13T05:58:03.256Z,70.86
2018-05-13T06:00:30.223Z,71.88
2018-05-13T06:02:57.169Z,70.74
2018-05-13T06:05:24.114Z,69.47
2018-05-13T06:07:51.057Z,69.69
2018-05-13T06:10:18.006Z,70.82
2018-05-13T06:12:44.992Z,70.67
2018-05-13T06:15:11.970Z,69.51
2018-05-13T06:17:38.890Z,68.31
2018-05-13T06:20:05.839Z,66.77
2018-05-13T06:22:32.788Z,66.89
2018-05-13T06:24:59.731Z,67.02
2018-05-13T06:27:27.192Z,67.37
2018-05-13T06:29:54.335Z,66.34
2018-05-13T06:32:21.280Z,66.05
2018-05-13T06:34:48.247Z,66.46
2018-05-13T06:37:15.191Z,64.92
2018-05-13T06:39:42.180Z,65.01
2018-05-13T06:42:09.091Z,64.94
2018-05-13T06:44:36.042Z,64.61
2018-05-13T06:47:03.043Z,64.72
2018-05-13T06:49:29.987Z,64.55
2018-05-13T06:51:56.931Z,64.85
2018-05-13T06:54:23.875Z,64.78
2018-05-13T06:56:50.819Z,64.86
2018-05-13T06:59:17.764Z,65.06
2018-05-13T07:01:44.732Z,65.22
2018-05-13T07:04:11.673Z,65.21
2018-05-13T07:06:38.616Z,65.26
2018-05-13T07:09:05.560Z,64.67
2018-05-13T07:11:32.506Z,65.24
2018-05-13T07:13:59.446Z,64.72
2018-05-13T07:16:26.488Z,64.49
2018-05-13T07:18:53.342Z,64.17
2018-05-13T07:21:20.290Z,63.43
2018-05-13T07:23:47.234Z,62.99
2018-05-13T07:26:14.195Z,63.13
2018-05-13T07:28:41.149Z,62.06
2018-05-13T07:31:08.101Z,61.81
2018-05-13T07:33:35.036Z,61.00
2018-05-13T07:36:01.979Z,61.65
2018-05-13T07:38:29.121Z,61.01
2018-05-13T07:40:56.048Z,60.30
2018-05-13T07:43:23.004Z,60.07
2018-05-13T07:45:50.012Z,60.05
2018-05-13T07:48:16.969Z,59.69
2018-05-13T07:50:43.914Z,59.65
2018-05-13T07:53:10.861Z,59.42
2018-05-13T07:55:37.886Z,59.15
2018-05-13T07:58:04.823Z,59.46
2018-05-13T08:00:31.763Z,59.86
2018-05-13T08:02:58.781Z,59.53
2018-05-13T08:05:25.771Z,62.22
2018-05-13T08:07:52.747Z,63.14
2018-05-13T08:10:19.713Z,62.68
2018-05-13T08:12:46.684Z,64.50
2018-05-13T08:15:13.611Z,67.36
2018-05-13T08:17:40.579Z,66.85
2018-05-13T08:20:07.523Z,68.12
2018-05-13T08:22:34.453Z,69.11
2018-05-13T08:25:01.396Z,63.91
2018-05-13T08:27:28.354Z,63.99
2018-05-13T08:29:55.286Z,60.88
2018-05-13T08:32:22.231Z,61.11
2018-05-13T08:34:49.173Z,61.59
2018-05-13T08:37:16.114Z,64.20
2018-05-13T08:39:43.058Z,62.39
2018-05-13T08:42:10.009Z,62.56
2018-05-13T08:44:36.944Z,60.60
2018-05-13T08:47:03.888Z,59.60
2018-05-13T08:49:30.825Z,59.90
2018-05-13T08:51:57.770Z,59.13
2018-05-13T08:54:24.732Z,58.72
2018-05-13T08:56:51.667Z,57.54
2018-05-13T08:59:18.666Z,57.26
2018-05-13T09:01:45.633Z,57.61
2018-05-13T09:04:12.692Z,57.19
2018-05-13T09:11:53.964Z,53.75
2018-05-13T09:14:21.345Z,53.13
2018-05-13T09:57:12.984Z,50.39
2018-05-13T09:59:40.343Z,50.75
2018-05-13T10:02:07.765Z,53.02
2018-05-13T10:04:35.148Z,54.05
2018-05-13T10:07:02.629Z,53.83
2018-05-13T10:09:30.075Z,55.01
2018-05-13T10:11:57.471Z,56.42
2018-05-13T10:14:24.867Z,58.29
2018-05-13T10:16:52.324Z,57.87
2018-05-13T10:19:19.767Z,58.66
2018-05-13T10:21:47.147Z,60.27
2018-05-13T10:24:14.527Z,61.03
2018-05-13T10:26:41.969Z,61.74
2018-05-13T10:29:09.344Z,63.00
2018-05-13T10:31:36.732Z,62.76
2018-05-13T10:34:04.104Z,63.24
2018-05-13T10:36:31.620Z,62.63
2018-05-13T10:38:58.914Z,62.28
2018-05-13T10:41:26.296Z,62.16
2018-05-13T10:43:53.667Z,62.42
2018-05-13T10:46:21.057Z,61.94
2018-05-13T10:48:48.452Z,61.90
2018-05-13T10:51:16.741Z,61.32
2018-05-13T10:53:44.129Z,61.44
2018-05-13T10:56:11.509Z,62.11
2018-05-13T10:58:38.892Z,61.80
2018-05-13T11:01:06.272Z,61.19
2018-05-13T11:03:33.680Z,61.36
2018-05-13T11:06:01.049Z,61.06
2018-05-13T11:08:28.436Z,61.90
2018-05-13T11:10:55.811Z,61.82
2018-05-13T11:13:23.395Z,62.39
2018-05-13T11:15:50.760Z,61.31
2018-05-13T11:18:18.151Z,61.50
2018-05-13T11:20:45.634Z,61.18
2018-05-13T11:23:12.920Z,60.96
2018-05-13T11:25:40.304Z,61.18
2018-05-13T11:28:07.695Z,62.64
2018-05-13T11:30:35.079Z,62.87
2018-05-13T11:33:02.667Z,62.48
2018-05-13T11:35:30.066Z,61.79
2018-05-13T11:37:57.431Z,60.20
2018-05-13T11:40:24.812Z,60.18
2018-05-13T11:42:52.234Z,59.58
2018-05-13T11:45:19.624Z,58.66
2018-05-13T11:47:47.024Z,59.02
2018-05-13T11:50:14.404Z,58.52
2018-05-13T11:52:41.788Z,58.17
2018-05-13T11:55:09.179Z,57.90
2018-05-13T11:57:36.575Z,58.67
2018-05-13T12:00:03.973Z,57.20
2018-05-13T12:02:31.375Z,58.59
2018-05-13T12:04:58.739Z,57.67
2018-05-13T12:07:26.137Z,57.73
2018-05-13T12:09:53.515Z,57.85
2018-05-13T12:12:20.903Z,55.69
2018-05-13T12:14:48.310Z,55.47
2018-05-13T12:17:15.692Z,56.57
2018-05-13T12:19:43.081Z,56.38
2018-05-13T12:22:10.491Z,57.47
2018-05-13T12:24:37.894Z,56.20
2018-05-13T12:27:05.323Z,55.61
2018-05-13T12:29:32.682Z,56.11
2018-05-13T12:32:00.114Z,56.50
2018-05-13T12:34:27.495Z,56.70
2018-05-13T12:36:54.951Z,58.19
2018-05-13T12:39:22.355Z,58.09
2018-05-13T12:41:49.731Z,57.68
2018-05-13T12:44:17.129Z,59.12
2018-05-13T12:46:44.528Z,58.58
2018-05-13T12:49:12.740Z,58.67
2018-05-13T12:51:40.161Z,58.84
2018-05-13T12:54:07.601Z,60.11
2018-05-13T12:56:35.296Z,60.38
2018-05-13T12:59:02.715Z,59.55
2018-05-13T13:03:42.304Z,59.36
2018-05-13T13:06:09.625Z,58.88
2018-05-13T13:08:36.997Z,58.42
2018-05-13T13:11:04.393Z,58.89
2018-05-13T13:13:31.790Z,59.49
2018-05-13T13:15:59.842Z,58.99
2018-05-13T13:18:27.221Z,58.44
2018-05-13T13:20:54.596Z,59.71
2018-05-13T13:23:21.985Z,59.29
2018-05-13T13:25:49.372Z,58.89
2018-05-13T13:28:29.194Z,60.03
2018-05-13T13:30:59.263Z,60.21
2018-05-13T13:33:31.891Z,59.84
2018-05-13T13:35:59.284Z,59.29
2018-05-13T13:38:26.688Z,59.50
2018-05-13T13:40:54.091Z,60.53
2018-05-13T13:43:21.461Z,60.08
2018-05-13T13:45:48.855Z,60.16
2018-05-13T13:48:16.247Z,59.86
2018-05-13T13:50:43.619Z,59.64
2018-05-13T13:53:10.987Z,60.38
2018-05-13T13:55:38.485Z,59.63
2018-05-13T13:58:05.885Z,59.56
2018-05-13T14:00:33.259Z,58.23
2018-05-13T14:03:00.644Z,57.12
2018-05-13T14:05:28.040Z,57.62
2018-05-13T14:07:55.414Z,56.79
2018-05-13T14:10:22.813Z,56.52
2018-05-13T14:12:50.219Z,56.40
2018-05-13T14:15:18.599Z,58.12
2018-05-13T14:17:45.968Z,56.13
2018-05-13T14:20:13.439Z,56.52
2018-05-13T14:22:40.759Z,55.55
2018-05-13T14:25:08.140Z,56.96
2018-05-13T14:27:35.540Z,57.96
2018-05-13T14:30:02.942Z,58.14
2018-05-13T14:32:30.309Z,58.76
2018-05-13T14:34:57.693Z,58.85
2018-05-13T14:37:25.091Z,58.90
2018-05-13T14:39:52.568Z,58.05
2018-05-13T14:42:19.858Z,58.30
2018-05-13T14:44:47.248Z,57.60
2018-05-13T14:47:14.644Z,58.68
2018-05-13T14:49:42.057Z,59.34
2018-05-13T14:52:09.429Z,58.77
2018-05-13T14:54:36.816Z,59.11
2018-05-13T14:57:04.210Z,59.75
2018-05-13T14:59:31.588Z,60.38
2018-05-13T15:01:58.997Z,61.31
2018-05-13T15:04:26.385Z,60.86
2018-05-13T15:06:53.768Z,61.65
2018-05-13T15:09:22.152Z,61.52
2018-05-13T15:11:48.536Z,62.52
2018-05-13T15:14:15.917Z,62.64
2018-05-13T15:16:43.344Z,62.99
2018-05-13T15:19:10.676Z,63.73
2018-05-13T15:21:38.075Z,61.08
2018-05-13T15:24:05.451Z,60.74
2018-05-13T15:26:32.887Z,60.90
2018-05-13T15:29:00.261Z,60.60
2018-05-13T15:31:27.623Z,61.00
2018-05-13T15:33:55.007Z,60.98
2018-05-13T15:36:22.401Z,62.03
2018-05-13T15:38:50.988Z,63.76
2018-05-13T15:41:18.359Z,65.70
2018-05-13T15:43:45.753Z,65.83
2018-05-13T15:46:13.160Z,67.94
2018-05-13T15:48:40.539Z,68.54
2018-05-13T15:51:07.917Z,68.62
2018-05-13T15:53:35.307Z,68.39
2018-05-13T15:56:02.684Z,69.23
2018-05-13T15:58:30.067Z,69.13
2018-05-13T16:00:57.445Z,67.70
2018-05-13T16:03:24.831Z,68.14
2018-05-13T16:05:52.204Z,68.12
2018-05-13T16:08:19.583Z,66.82
2018-05-13T16:10:46.965Z,66.22
2018-05-13T16:13:14.352Z,66.98
2018-05-13T16:15:41.731Z,66.35
2018-05-13T16:18:09.128Z,65.40
2018-05-13T16:20:36.511Z,65.92
2018-05-13T16:23:03.921Z,66.15
2018-05-13T16:25:31.315Z,65.74
2018-05-13T16:27:58.699Z,65.58
2018-05-13T16:30:26.108Z,67.10
2018-05-13T16:32:53.484Z,66.24
2018-05-13T16:35:21.823Z,65.93
2018-05-13T16:37:49.230Z,66.37
2018-05-13T16:40:16.604Z,66.12
2018-05-13T16:42:43.982Z,65.12
2018-05-13T16:45:11.360Z,66.90
2018-05-13T16:47:38.752Z,67.02
2018-05-13T16:50:06.141Z,66.59
2018-05-13T16:52:33.519Z,67.19
2018-05-13T16:55:00.903Z,67.23
2018-05-13T16:57:28.280Z,68.23
2018-05-13T16:59:55.667Z,67.30
2018-05-13T17:02:23.591Z,68.47
2018-05-13T17:04:50.956Z,67.82
2018-05-13T17:07:18.324Z,67.92
2018-05-13T17:09:45.715Z,69.33
2018-05-13T17:12:13.711Z,69.27
2018-05-13T17:14:41.107Z,69.82
2018-05-13T17:17:08.557Z,69.46
2018-05-13T17:19:35.858Z,69.61
2018-05-13T17:22:03.254Z,70.06
2018-05-13T17:24:30.632Z,69.98
2018-05-13T17:26:58.022Z,69.90
2018-05-13T17:29:25.416Z,70.54
2018-05-13T17:31:53.264Z,69.47
2018-05-13T17:34:20.670Z,70.46
2018-05-13T17:36:48.060Z,70.29
2018-05-13T17:39:15.462Z,70.79
2018-05-13T17:41:42.836Z,71.05
2018-05-13T17:44:10.227Z,70.52
2018-05-13T17:46:37.622Z,70.81
2018-05-13T17:49:05.021Z,70.70
2018-05-13T17:51:32.400Z,71.44
2018-05-13T17:53:59.788Z,70.93
2018-05-13T17:56:27.160Z,71.14
2018-05-13T17:58:54.544Z,71.72
2018-05-13T18:01:21.924Z,71.90
2018-05-13T18:03:49.347Z,71.53
2018-05-13T18:06:16.730Z,71.64
2018-05-13T18:08:44.121Z,71.46
2018-05-13T18:11:11.511Z,71.20
2018-05-13T18:13:38.908Z,70.72
2018-05-13T18:16:06.287Z,70.62
2018-05-13T18:18:33.716Z,70.01
2018-05-13T18:21:01.051Z,70.56
2018-05-13T18:23:28.439Z,70.13
2018-05-13T18:25:55.827Z,70.05
2018-05-13T18:28:23.242Z,69.55
2018-05-13T18:30:51.207Z,69.17
2018-05-13T18:33:18.600Z,69.14
2018-05-13T18:35:45.991Z,68.95
2018-05-13T18:38:13.401Z,68.81
2018-05-13T18:40:40.772Z,68.64
2018-05-13T18:43:08.151Z,69.04
2018-05-13T18:45:35.540Z,69.55
2018-05-13T18:48:02.918Z,70.49
2018-05-13T18:50:30.316Z,71.56
2018-05-13T18:52:57.784Z,71.73
2018-05-13T18:55:25.173Z,71.65
2018-05-13T18:57:52.544Z,71.20
2018-05-13T19:00:19.994Z,71.07
2018-05-13T19:02:47.396Z,71.32
2018-05-13T19:05:14.788Z,71.38
2018-05-13T19:07:42.168Z,72.07
2018-05-13T19:10:09.716Z,72.41
2018-05-13T19:12:37.081Z,72.58
2018-05-13T19:15:04.475Z,72.97
2018-05-13T19:17:33.045Z,72.90
2018-05-13T19:20:00.414Z,73.25
2018-05-13T19:22:27.826Z,73.52
2018-05-13T19:24:55.215Z,73.91
2018-05-13T19:27:22.595Z,74.22
2018-05-13T19:29:50.008Z,74.32
2018-05-13T19:32:17.377Z,74.31
2018-05-13T19:34:44.780Z,74.50
2018-05-13T19:37:12.164Z,74.66
2018-05-13T19:39:39.576Z,74.88
2018-05-13T19:42:06.977Z,75.54
2018-05-13T19:44:34.397Z,75.51
2018-05-13T19:47:01.772Z,75.65
2018-05-13T19:49:29.175Z,75.96
2018-05-13T19:51:56.589Z,76.43
2018-05-13T19:54:23.980Z,76.92
2018-05-13T19:56:51.360Z,78.10
2018-05-13T19:59:21.415Z,78.73
2018-05-13T20:01:49.506Z,79.70
2018-05-13T20:04:16.939Z,80.37
2018-05-13T20:06:44.324Z,81.10
2018-05-13T20:09:11.856Z,81.34
2018-05-13T20:11:39.324Z,81.79
2018-05-13T20:14:06.768Z,82.31
2018-05-13T20:16:34.134Z,82.27
2018-05-13T20:19:01.524Z,83.21
2018-05-13T20:21:28.911Z,84.51
2018-05-13T20:23:56.352Z,85.20
2018-05-13T20:26:23.733Z,85.64
2018-05-13T20:28:51.140Z,86.19
2018-05-13T20:31:18.524Z,86.87
2018-05-13T20:33:45.929Z,87.47
2018-05-13T20:36:13.357Z,87.97
2018-05-13T20:38:40.727Z,88.55
2018-05-13T20:41:08.118Z,89.65
2018-05-13T20:43:35.508Z,89.94
2018-05-13T20:46:02.901Z,90.56
2018-05-13T20:48:30.308Z,90.80
2018-05-13T20:50:57.800Z,91.12
2018-05-13T20:53:25.216Z,91.13
2018-05-13T20:55:52.603Z,90.93
2018-05-13T20:58:20.010Z,90.30
2018-05-13T21:00:47.416Z,89.89
2018-05-13T21:03:15.703Z,90.16
2018-05-13T21:05:43.102Z,90.00
2018-05-13T21:08:10.486Z,89.73
2018-05-13T21:10:37.934Z,89.80
2018-05-13T21:13:05.306Z,89.86
2018-05-13T21:15:33.230Z,89.50
2018-05-13T21:18:00.630Z,89.85
2018-05-13T21:20:28.043Z,89.72
2018-05-13T21:22:55.441Z,89.91
2018-05-13T21:25:22.821Z,89.92
2018-05-13T21:27:50.198Z,90.39
2018-05-13T21:30:17.671Z,90.88
2018-05-13T21:32:45.032Z,90.97
2018-05-13T21:35:12.468Z,91.27
2018-05-13T21:37:39.869Z,91.64
2018-05-13T21:40:07.285Z,91.80
2018-05-13T21:42:34.694Z,91.66
2018-05-13T21:45:02.936Z,91.87
2018-05-13T21:47:30.333Z,91.76
2018-05-13T21:52:40.198Z,91.81
2018-05-13T21:55:17.618Z,91.75
2018-05-13T22:00:20.981Z,91.50
2018-05-13T22:02:48.423Z,90.91
2018-05-13T22:05:15.919Z,90.52
2018-05-13T22:07:43.382Z,90.39
2018-05-13T22:10:10.841Z,90.55
2018-05-13T22:12:38.245Z,91.54
2018-05-13T22:15:05.661Z,90.64
2018-05-13T22:17:33.094Z,90.65
2018-05-13T22:20:00.467Z,90.60
2018-05-13T22:22:27.888Z,90.56
2018-05-13T22:24:56.953Z,89.28
2018-05-13T22:27:24.369Z,88.62
2018-05-13T22:29:51.825Z,89.02
2018-05-13T22:32:19.246Z,89.14
2018-05-13T22:34:46.671Z,89.63
2018-05-13T22:37:14.036Z,89.72
2018-05-13T22:39:41.414Z,89.25
2018-05-13T22:42:08.798Z,89.06
2018-05-13T22:44:36.172Z,89.23
2018-05-13T22:47:03.566Z,89.52
2018-05-13T22:49:30.948Z,89.72
2018-05-13T22:51:58.336Z,90.66
2018-05-13T22:54:25.729Z,90.75
2018-05-13T22:56:53.104Z,91.87
2018-05-13T22:59:20.475Z,92.83
2018-05-13T23:01:47.873Z,93.42
2018-05-13T23:04:15.259Z,93.39
2018-05-13T23:06:42.650Z,93.15
2018-05-13T23:09:10.042Z,93.13
2018-05-13T23:11:37.425Z,93.47
2018-05-13T23:14:04.809Z,93.45
2018-05-13T23:16:32.192Z,93.52
2018-05-13T23:18:59.572Z,94.05
2018-05-13T23:21:26.951Z,93.73
2018-05-13T23:23:54.372Z,93.42
2018-05-13T23:26:21.745Z,93.17
2018-05-13T23:28:49.128Z,93.47
2018-05-13T23:31:16.504Z,93.75
2018-05-13T23:33:43.893Z,94.37
2018-05-13T23:36:11.267Z,93.88
2018-05-13T23:38:39.533Z,93.79
2018-05-13T23:41:06.945Z,93.57
2018-05-13T23:43:34.363Z,94.20
2018-05-13T23:46:01.798Z,94.73
2018-05-13T23:48:29.171Z,95.15
2018-05-13T23:50:56.553Z,94.60
2018-05-13T23:53:23.944Z,94.79
2018-05-13T23:55:51.343Z,95.08
2018-05-13T23:58:18.716Z,95.07
